Vashon, WA (98070)

10:15 PM PDT on August 31, 2016 (GMT -0700)
Voice of Vashon | | Change Station

Elev 400 ft 47.42 °N, 122.46 °W | Updated 50 seconds ago

Mostly Cloudy
Mostly Cloudy
60.3 °F
Feels Like 60.3 °F
N
10.1
Wind Variable Wind from SW
Gusts 10.1 mph

Today
High -- | Low -- °F
--% Chance of Precip.
Yesterday
High -- | Low -- °F
Precip. -- in
Pressure 30.02 in
Visibility 10.0 miles
Clouds Few 2500 ft
Few 10000 ft
Mostly Cloudy 22000 ft
Dew Point 56 °F
Humidity 85%
Rainfall 0.02 in
Snow Depth Not available.
6:28 AM 7:50 PM
Waning Crescent, 0% visible
METAR KSEA 010453Z 20010KT 10SM FEW025 FEW100 BKN220 17/13 A3000 RMK AO2 SLP166 T01670128
Pressure 30.02 in
Visibility 10.0 miles
Clouds Few 2500 ft
Few 10000 ft
Mostly Cloudy 22000 ft
Dew Point 56 °F
Humidity 85%
Rainfall 0.02 in
Snow Depth Not available.
6:28 AM 7:50 PM
Waning Crescent, 0% visible
METAR KSEA 010453Z 20010KT 10SM FEW025 FEW100 BKN220 17/13 A3000 RMK AO2 SLP166 T01670128

10-Day Weather Forecast

Almanac

Astronomy

Aug. 31, 2016 Rise Set
Actual Time
Civil Twilight
Nautical Twilight
Astronomical Twilight
Moon
Length of Visible Light
Length of Day
Tomorrow will be .
, % of the Moon is Illuminated

Today's Extremes

State Highs State Lows

Community

WunderPhotos

Upload Photos

1,936,313 photos uploaded!

WunderBlog® & News

Nearby

Air Quality

  Air Quality AQ Index Pollutant
Not available.

Snow Depth

Station Depth Elevation

Earthquake Activity

City Distance Mag. Time & Date
Minimum magnitude displayed is 2.5.

Coastal Water Temperatures

Place Temperature

Stations

Nearby Weather Stations

Station Location Temp. Windchill Dew Point Humidity Wind Precip. Elev Updated Type
                   

Watches & Warnings

There are currently no watches in effect.